createdAt,value
2018-01-26T00:02:03.424Z,31.05
2018-01-26T00:04:31.128Z,33.15
2018-01-26T00:06:58.810Z,26.90
2018-01-26T00:09:26.635Z,28.83
2018-01-26T00:11:55.146Z,21.85
2018-01-26T00:14:22.837Z,28.98
2018-01-26T00:16:50.520Z,27.58
2018-01-26T00:19:18.162Z,34.10
2018-01-26T00:21:46.291Z,39.17
2018-01-26T00:24:13.891Z,30.92
2018-01-26T00:26:41.534Z,29.80
2018-01-26T00:29:09.128Z,30.55
2018-01-26T00:31:36.784Z,32.08
2018-01-26T00:34:05.153Z,31.52
2018-01-26T00:36:33.493Z,29.58
2018-01-26T00:39:01.146Z,31.42
2018-01-26T00:41:28.769Z,23.35
2018-01-26T00:43:56.395Z,28.35
2018-01-26T00:46:24.083Z,26.55
2018-01-26T00:48:51.714Z,24.15
2018-01-26T00:51:19.261Z,30.10
2018-01-26T00:53:46.831Z,25.90
2018-01-26T00:56:14.418Z,26.50
2018-01-26T00:58:42.015Z,28.52
2018-01-26T01:01:09.712Z,25.58
2018-01-26T01:03:37.298Z,35.78
2018-01-26T01:06:04.890Z,30.58
2018-01-26T01:08:32.578Z,29.98
2018-01-26T01:11:01.103Z,29.15
2018-01-26T01:13:28.666Z,30.08
2018-01-26T01:15:56.274Z,33.50
2018-01-26T01:18:23.828Z,26.55
2018-01-26T01:20:51.443Z,32.88
2018-01-26T01:23:19.026Z,27.35
2018-01-26T01:25:47.400Z,47.50
2018-01-26T01:28:15.059Z,39.83
2018-01-26T01:30:42.757Z,40.45
2018-01-26T01:33:10.353Z,30.77
2018-01-26T01:35:38.747Z,33.47
2018-01-26T01:38:06.357Z,31.23
2018-01-26T01:40:34.974Z,32.47
2018-01-26T01:43:03.336Z,40.15
2018-01-26T01:45:30.898Z,29.15
2018-01-26T01:47:58.486Z,28.33
2018-01-26T01:50:26.114Z,30.67
2018-01-26T01:52:53.695Z,34.85
2018-01-26T01:55:22.612Z,38.55
2018-01-26T01:57:50.175Z,35.63
2018-01-26T02:00:17.808Z,38.58
2018-01-26T02:02:46.323Z,41.85
2018-01-26T02:05:13.983Z,45.45
2018-01-26T02:07:41.727Z,42.17
2018-01-26T02:10:09.648Z,54.05
2018-01-26T02:12:37.430Z,53.63
2018-01-26T02:15:05.230Z,49.47
2018-01-26T02:17:33.023Z,49.60
2018-01-26T02:20:00.831Z,47.15
2018-01-26T02:22:28.534Z,53.47
2018-01-26T02:24:56.291Z,42.38
2018-01-26T02:27:24.182Z,42.13
2018-01-26T02:29:51.886Z,37.20
2018-01-26T02:32:19.522Z,39.10
2018-01-26T02:34:47.142Z,42.10
2018-01-26T02:37:14.694Z,42.10
2018-01-26T02:39:43.057Z,43.97
2018-01-26T02:42:11.597Z,36.30
2018-01-26T02:44:39.201Z,41.33
2018-01-26T02:47:06.850Z,32.47
2018-01-26T02:49:34.435Z,43.20
2018-01-26T02:52:02.835Z,36.20
2018-01-26T02:54:30.400Z,40.17
2018-01-26T02:56:57.998Z,36.35
2018-01-26T02:59:25.674Z,37.60
2018-01-26T03:01:53.285Z,36.97
2018-01-26T03:04:20.994Z,34.88
2018-01-26T03:06:48.654Z,34.45
2018-01-26T03:09:16.446Z,41.35
2018-01-26T03:11:44.133Z,38.17
2018-01-26T03:14:11.856Z,38.75
2018-01-26T03:16:39.498Z,34.63
2018-01-26T03:19:07.110Z,35.22
2018-01-26T03:21:34.662Z,36.15
2018-01-26T03:24:03.011Z,33.42
2018-01-26T03:26:30.636Z,35.08
2018-01-26T03:28:58.222Z,32.65
2018-01-26T03:31:25.765Z,37.78
2018-01-26T03:33:54.024Z,38.60
2018-01-26T03:36:22.353Z,34.70
2018-01-26T03:38:50.137Z,37.38
2018-01-26T03:41:17.966Z,29.20
2018-01-26T03:43:45.696Z,36.60
2018-01-26T03:46:13.404Z,41.55
2018-01-26T03:48:41.059Z,36.58
2018-01-26T03:51:08.668Z,45.50
2018-01-26T03:53:36.285Z,40.60
2018-01-26T03:56:03.848Z,35.08
2018-01-26T03:58:31.435Z,34.75
2018-01-26T04:00:59.812Z,40.65
2018-01-26T04:03:28.209Z,54.65
2018-01-26T04:05:55.771Z,35.33
2018-01-26T04:08:23.393Z,37.70
2018-01-26T04:10:50.989Z,36.75
2018-01-26T04:13:18.556Z,44.17
2018-01-26T04:15:46.060Z,44.55
2018-01-26T04:18:13.612Z,40.03
2018-01-26T04:20:41.261Z,39.78
2018-01-26T04:23:08.866Z,51.20
2018-01-26T04:25:36.474Z,47.95
2018-01-26T04:28:04.083Z,51.22
2018-01-26T04:30:32.916Z,45.53
2018-01-26T04:33:00.491Z,50.08
2018-01-26T04:35:28.035Z,41.20
2018-01-26T04:37:55.681Z,47.75
2018-01-26T04:40:23.299Z,45.72
2018-01-26T04:42:50.912Z,47.30
2018-01-26T04:45:18.542Z,44.92
2018-01-26T04:47:46.919Z,40.67
2018-01-26T04:50:15.242Z,34.10
2018-01-26T04:52:42.888Z,46.92
2018-01-26T04:55:10.460Z,56.17
2018-01-26T04:57:38.054Z,40.80
2018-01-26T05:00:06.692Z,56.33
2018-01-26T05:02:34.392Z,49.83
2018-01-26T05:05:01.998Z,47.95
2018-01-26T05:07:29.610Z,52.08
2018-01-26T05:09:57.269Z,48.28
2018-01-26T05:12:24.872Z,50.55
2018-01-26T05:14:53.300Z,55.85
2018-01-26T05:17:20.852Z,44.42
2018-01-26T05:19:48.432Z,50.28
2018-01-26T05:22:16.003Z,48.10
2018-01-26T05:24:43.556Z,46.33
2018-01-26T05:27:11.130Z,44.58
2018-01-26T05:29:38.712Z,48.22
2018-01-26T05:32:07.128Z,51.55
2018-01-26T05:34:34.682Z,56.65
2018-01-26T05:37:02.258Z,57.60
2018-01-26T05:39:29.869Z,53.97
2018-01-26T05:41:57.583Z,46.97
2018-01-26T05:44:25.705Z,49.95
2018-01-26T05:46:53.279Z,49.90
2018-01-26T05:49:21.602Z,47.25
2018-01-26T05:51:49.181Z,45.85
2018-01-26T05:54:16.780Z,46.97
2018-01-26T05:56:44.932Z,47.85
2018-01-26T05:59:13.264Z,43.22
2018-01-26T06:01:40.867Z,44.97
2018-01-26T06:04:09.235Z,52.70
2018-01-26T06:06:36.802Z,51.97
2018-01-26T06:09:05.206Z,49.25
2018-01-26T06:11:33.611Z,47.65
2018-01-26T06:14:01.142Z,51.83
2018-01-26T06:16:28.865Z,52.00
2018-01-26T06:18:56.428Z,60.90
2018-01-26T06:21:24.069Z,51.97
2018-01-26T06:23:52.498Z,55.83
2018-01-26T06:26:20.965Z,52.45
2018-01-26T06:28:48.717Z,52.50
2018-01-26T06:31:16.431Z,53.25
2018-01-26T06:33:44.235Z,47.55
2018-01-26T06:36:11.850Z,55.17
2018-01-26T06:38:39.410Z,44.70
2018-01-26T06:41:07.015Z,53.97
2018-01-26T06:43:34.601Z,46.55
2018-01-26T06:46:02.188Z,50.42
2018-01-26T06:48:29.865Z,51.15
2018-01-26T06:50:58.521Z,51.95
2018-01-26T06:53:26.957Z,45.70
2018-01-26T06:55:54.554Z,46.15
2018-01-26T06:58:22.873Z,53.58
2018-01-26T07:00:50.445Z,50.60
2018-01-26T07:03:18.009Z,49.47
2018-01-26T07:05:46.248Z,40.83
2018-01-26T07:08:14.129Z,52.40
2018-01-26T07:10:41.786Z,48.08
2018-01-26T07:13:09.575Z,51.90
2018-01-26T07:15:37.222Z,56.37
2018-01-26T07:18:04.968Z,52.00
2018-01-26T07:20:32.666Z,57.47
2018-01-26T07:23:00.409Z,59.55
2018-01-26T07:25:28.904Z,72.93
2018-01-26T07:27:56.657Z,67.37
2018-01-26T07:30:25.192Z,59.80
2018-01-26T07:32:52.858Z,60.97
2018-01-26T07:35:20.586Z,60.50
2018-01-26T07:37:48.262Z,53.95
2018-01-26T07:40:16.006Z,69.40
2018-01-26T07:42:43.719Z,63.63
2018-01-26T07:45:11.448Z,58.28
2018-01-26T07:47:39.176Z,64.57
2018-01-26T07:50:07.563Z,63.72
2018-01-26T07:52:35.160Z,65.85
2018-01-26T07:55:03.505Z,64.28
2018-01-26T07:57:31.089Z,64.90
2018-01-26T07:59:58.651Z,64.95
2018-01-26T08:02:26.246Z,55.00
2018-01-26T08:04:53.831Z,51.05
2018-01-26T08:07:21.381Z,68.65
2018-01-26T08:09:49.061Z,58.45
2018-01-26T08:12:16.890Z,66.82
2018-01-26T08:14:44.532Z,59.88
2018-01-26T08:17:13.198Z,64.85
2018-01-26T08:19:41.417Z,62.30
2018-01-26T08:22:09.134Z,64.00
2018-01-26T08:24:36.928Z,72.37
2018-01-26T08:27:04.757Z,60.35
2018-01-26T08:29:32.795Z,56.13
2018-01-26T08:32:01.211Z,54.95
2018-01-26T08:34:28.749Z,50.22
2018-01-26T08:36:56.322Z,45.22
2018-01-26T08:39:23.953Z,47.17
2018-01-26T08:41:51.587Z,68.68
2018-01-26T08:44:19.954Z,44.40
2018-01-26T08:46:48.299Z,44.08
2018-01-26T08:49:15.913Z,52.08
2018-01-26T08:51:43.482Z,44.10
2018-01-26T08:54:11.061Z,51.28
2018-01-26T08:56:38.681Z,43.65
2018-01-26T08:59:07.029Z,44.45
2018-01-26T09:01:34.618Z,42.90
2018-01-26T09:04:02.199Z,48.70
2018-01-26T09:06:30.121Z,53.75
2018-01-26T09:08:57.843Z,46.50
2018-01-26T09:11:25.498Z,48.45
2018-01-26T09:13:54.006Z,43.63
2018-01-26T09:16:21.922Z,44.05
2018-01-26T09:18:49.607Z,43.97
2018-01-26T09:21:17.372Z,43.28
2018-01-26T09:23:45.140Z,50.85
2018-01-26T09:26:12.905Z,48.13
2018-01-26T09:28:41.436Z,57.22
2018-01-26T09:31:09.293Z,47.65
2018-01-26T09:33:36.932Z,49.65
2018-01-26T09:36:04.774Z,46.22
2018-01-26T09:38:32.527Z,49.28
2018-01-26T09:41:00.192Z,55.85
2018-01-26T09:43:27.999Z,58.33
2018-01-26T09:45:55.836Z,57.67
2018-01-26T09:48:23.566Z,57.40
2018-01-26T09:50:52.243Z,47.17
2018-01-26T09:53:20.028Z,43.67
2018-01-26T09:55:47.721Z,45.53
2018-01-26T09:58:15.326Z,47.88
2018-01-26T10:00:43.077Z,44.28
2018-01-26T10:03:10.780Z,50.40
2018-01-26T10:05:38.531Z,39.08
2018-01-26T10:08:06.194Z,60.95
2018-01-26T10:10:33.925Z,41.90
2018-01-26T10:13:01.654Z,43.30
2018-01-26T10:15:29.357Z,42.80
2018-01-26T10:17:57.190Z,49.38
2018-01-26T10:20:25.977Z,44.80
2018-01-26T10:22:53.733Z,47.65
2018-01-26T10:25:21.561Z,51.33
2018-01-26T10:27:49.266Z,43.80
2018-01-26T10:30:17.005Z,45.03
2018-01-26T10:32:44.733Z,52.28
2018-01-26T10:35:12.430Z,51.30
2018-01-26T10:37:40.091Z,57.58
2018-01-26T10:40:07.828Z,59.05
2018-01-26T10:42:35.523Z,53.97
2018-01-26T10:45:03.150Z,56.15
2018-01-26T10:47:30.854Z,51.10
2018-01-26T10:49:58.576Z,54.92
2018-01-26T10:52:26.337Z,61.25
2018-01-26T10:54:54.037Z,54.00
2018-01-26T10:57:21.667Z,50.83
2018-01-26T10:59:49.374Z,55.92
2018-01-26T11:02:17.301Z,57.70
2018-01-26T11:04:45.091Z,63.58
2018-01-26T11:07:12.976Z,56.80
2018-01-26T11:09:40.715Z,54.55
2018-01-26T11:12:08.478Z,61.03
2018-01-26T11:14:36.178Z,48.55
2018-01-26T11:17:04.602Z,56.13
2018-01-26T11:19:32.367Z,65.32
2018-01-26T11:22:00.119Z,52.53
2018-01-26T11:24:27.831Z,53.35
2018-01-26T11:26:55.493Z,51.88
2018-01-26T11:29:23.362Z,47.20
2018-01-26T11:31:50.972Z,66.87
2018-01-26T11:34:18.581Z,51.78
2018-01-26T11:36:46.175Z,48.97
2018-01-26T11:39:13.793Z,47.65
2018-01-26T11:41:41.320Z,45.05
2018-01-26T11:44:08.837Z,57.33
2018-01-26T11:46:37.356Z,48.63
2018-01-26T11:49:05.198Z,45.20
2018-01-26T11:51:33.670Z,44.85
2018-01-26T11:54:02.271Z,56.25
2018-01-26T11:56:30.267Z,53.58
2018-01-26T11:58:57.898Z,48.33
2018-01-26T12:01:25.516Z,49.17
2018-01-26T12:03:53.557Z,54.25
2018-01-26T12:06:21.239Z,53.00
2018-01-26T12:08:48.780Z,61.63
2018-01-26T12:11:16.339Z,71.35
2018-01-26T12:13:44.477Z,62.60
2018-01-26T12:16:12.054Z,57.20
2018-01-26T12:18:41.327Z,62.67
2018-01-26T12:21:09.010Z,70.55
2018-01-26T12:23:36.604Z,66.03
2018-01-26T12:26:04.200Z,66.20
2018-01-26T12:28:32.779Z,64.85
2018-01-26T12:31:01.205Z,71.50
2018-01-26T12:33:29.046Z,58.28
2018-01-26T12:35:56.752Z,51.10
2018-01-26T12:38:24.555Z,48.72
2018-01-26T12:40:52.374Z,53.38
2018-01-26T12:43:19.966Z,57.47
2018-01-26T12:45:47.627Z,45.50
2018-01-26T12:48:16.024Z,55.65
2018-01-26T12:50:44.383Z,47.65
2018-01-26T12:53:12.967Z,56.72
2018-01-26T12:55:40.649Z,44.40
2018-01-26T12:58:08.342Z,36.47
2018-01-26T13:00:36.045Z,43.55
2018-01-26T13:03:04.642Z,45.67
2018-01-26T13:05:32.243Z,45.60
2018-01-26T13:07:59.834Z,39.40
2018-01-26T13:10:27.377Z,41.72
2018-01-26T13:12:54.929Z,36.75
2018-01-26T13:15:22.521Z,54.60
2018-01-26T13:17:50.117Z,37.00
2018-01-26T13:20:18.452Z,41.45
2018-01-26T13:22:46.031Z,32.78
2018-01-26T13:25:13.650Z,40.65
2018-01-26T13:27:41.264Z,31.60
2018-01-26T13:30:09.661Z,40.22
2018-01-26T13:32:37.565Z,28.15
2018-01-26T13:35:05.108Z,33.17
2018-01-26T13:37:32.769Z,38.80
2018-01-26T13:40:00.533Z,47.97
2018-01-26T13:42:28.113Z,36.05
2018-01-26T13:44:55.649Z,38.00
2018-01-26T13:47:23.453Z,40.72
2018-01-26T13:49:51.061Z,35.45
2018-01-26T13:52:18.616Z,30.15
2018-01-26T13:54:46.181Z,29.08
2018-01-26T13:57:13.751Z,44.88
2018-01-26T13:59:41.751Z,50.30
2018-01-26T14:02:09.393Z,34.47
2018-01-26T14:04:37.310Z,39.38
2018-01-26T14:07:05.095Z,49.10
2018-01-26T14:09:32.803Z,42.17
2018-01-26T14:12:00.696Z,37.28
2018-01-26T14:14:28.471Z,73.85
2018-01-26T14:16:56.383Z,45.00
2018-01-26T14:19:24.098Z,44.35
2018-01-26T14:21:52.782Z,33.40
2018-01-26T14:24:20.518Z,44.03
2018-01-26T14:26:48.364Z,32.42
2018-01-26T14:29:17.092Z,42.95
2018-01-26T14:31:44.846Z,44.28
2018-01-26T14:34:12.540Z,44.05
2018-01-26T14:36:40.286Z,44.58
2018-01-26T14:39:07.942Z,44.20
2018-01-26T14:41:35.657Z,57.78
2018-01-26T14:44:03.273Z,48.92
2018-01-26T14:46:30.852Z,49.97
2018-01-26T14:48:58.806Z,50.25
2018-01-26T14:51:26.355Z,48.40
2018-01-26T14:53:53.926Z,48.70
2018-01-26T14:56:21.431Z,50.22
2018-01-26T14:58:48.992Z,44.60
2018-01-26T15:01:16.564Z,43.78
2018-01-26T15:03:44.886Z,53.33
2018-01-26T15:06:12.468Z,42.88
2018-01-26T15:08:40.256Z,43.78
2018-01-26T15:11:07.840Z,53.58
2018-01-26T15:13:36.189Z,43.15
2018-01-26T15:16:03.702Z,43.08
2018-01-26T15:18:31.280Z,49.90
2018-01-26T15:20:59.636Z,47.25
2018-01-26T15:23:27.239Z,39.95
2018-01-26T15:25:54.933Z,47.13
2018-01-26T15:28:23.276Z,44.15
2018-01-26T15:30:50.842Z,51.95
2018-01-26T15:33:19.209Z,52.90
2018-01-26T15:35:46.785Z,62.08
2018-01-26T15:38:14.431Z,46.10
2018-01-26T15:40:41.999Z,45.00
2018-01-26T15:43:10.553Z,44.92
2018-01-26T15:45:38.694Z,43.38
2018-01-26T15:48:06.306Z,41.20
2018-01-26T15:50:33.951Z,60.63
2018-01-26T15:53:01.530Z,37.30
2018-01-26T15:55:29.365Z,38.78
2018-01-26T15:57:56.968Z,47.35
2018-01-26T16:00:24.587Z,48.42
2018-01-26T16:02:52.485Z,47.05
2018-01-26T16:05:20.137Z,48.13
2018-01-26T16:07:47.769Z,42.62
2018-01-26T16:10:15.575Z,44.58
2018-01-26T16:12:43.196Z,45.22
2018-01-26T16:15:10.740Z,59.33
2018-01-26T16:17:38.323Z,46.42
2018-01-26T16:20:05.884Z,41.20
2018-01-26T16:22:33.494Z,68.82
2018-01-26T16:25:01.077Z,44.55
2018-01-26T16:27:28.737Z,84.35
2018-01-26T16:29:56.315Z,42.00
2018-01-26T16:32:23.864Z,38.17
2018-01-26T16:34:51.396Z,46.10
2018-01-26T16:37:19.017Z,40.97
2018-01-26T16:39:46.603Z,48.00
2018-01-26T16:42:14.201Z,49.97
2018-01-26T16:44:42.712Z,61.92
2018-01-26T16:47:10.274Z,50.60
2018-01-26T16:49:37.837Z,63.97
2018-01-26T16:52:06.235Z,67.78
2018-01-26T16:54:33.890Z,65.50
2018-01-26T16:57:01.468Z,67.78
2018-01-26T16:59:29.020Z,67.20
2018-01-26T17:01:56.659Z,56.97
2018-01-26T17:04:24.222Z,67.03
2018-01-26T17:06:52.572Z,62.58
2018-01-26T17:09:20.161Z,61.65
2018-01-26T17:11:47.738Z,72.50
2018-01-26T17:14:16.036Z,49.03
2018-01-26T17:16:43.596Z,61.13
2018-01-26T17:19:11.221Z,52.62
2018-01-26T17:21:38.793Z,66.35
2018-01-26T17:24:06.369Z,46.13
2018-01-26T17:26:34.016Z,45.42
2018-01-26T17:29:01.558Z,40.35
2018-01-26T17:31:29.944Z,41.75
2018-01-26T17:33:57.740Z,36.60
2018-01-26T17:36:25.280Z,38.33
2018-01-26T17:38:52.883Z,36.55
2018-01-26T17:41:21.506Z,38.08
2018-01-26T17:43:49.911Z,29.45
2018-01-26T17:46:17.562Z,36.22
2018-01-26T17:48:45.123Z,32.92
2018-01-26T17:51:12.684Z,39.78
2018-01-26T17:53:40.238Z,43.47
2018-01-26T17:56:08.100Z,46.85
2018-01-26T17:58:35.667Z,39.63
2018-01-26T18:01:03.204Z,44.00
2018-01-26T18:03:31.549Z,38.53
2018-01-26T18:05:59.133Z,41.42
2018-01-26T18:08:28.526Z,42.42
2018-01-26T18:10:56.177Z,36.83
2018-01-26T18:13:23.755Z,31.77
2018-01-26T18:15:51.316Z,43.87
2018-01-26T18:18:19.842Z,36.45
2018-01-26T18:20:47.454Z,37.22
2018-01-26T18:23:15.127Z,42.28
2018-01-26T18:25:42.780Z,34.80
2018-01-26T18:28:10.317Z,38.67
2018-01-26T18:30:38.013Z,44.85
2018-01-26T18:33:05.569Z,41.90
2018-01-26T18:35:33.942Z,41.70
2018-01-26T18:38:01.507Z,41.25
2018-01-26T18:40:29.058Z,33.00
2018-01-26T18:42:57.073Z,35.35
2018-01-26T18:45:24.979Z,38.60
2018-01-26T18:47:52.571Z,29.02
2018-01-26T18:50:20.859Z,34.17
2018-01-26T18:52:50.411Z,35.92
2018-01-26T18:55:18.764Z,35.33
2018-01-26T18:57:46.378Z,32.60
2018-01-26T19:00:14.798Z,37.95
2018-01-26T19:02:43.337Z,40.53
2018-01-26T19:05:10.917Z,41.33
2018-01-26T19:07:38.620Z,34.22
2018-01-26T19:10:06.278Z,43.15
2018-01-26T19:12:33.886Z,41.58
2018-01-26T19:15:01.461Z,48.35
2018-01-26T19:17:29.829Z,37.78
2018-01-26T19:19:58.168Z,44.05
2018-01-26T19:22:33.509Z,46.63
2018-01-26T19:25:01.938Z,41.92
2018-01-26T19:27:29.625Z,44.28
2018-01-26T19:29:57.876Z,46.20
2018-01-26T19:32:25.453Z,36.70
2018-01-26T19:34:53.432Z,37.63
2018-01-26T19:37:21.271Z,38.58
2018-01-26T19:39:48.808Z,41.72
2018-01-26T19:42:16.622Z,37.83
2018-01-26T19:44:44.160Z,33.05
2018-01-26T19:47:12.506Z,40.92
2018-01-26T19:49:40.052Z,40.28
2018-01-26T19:52:07.636Z,34.47
2018-01-26T19:54:35.548Z,35.30
2018-01-26T19:57:03.123Z,35.13
2018-01-26T19:59:30.739Z,34.88
2018-01-26T20:01:59.039Z,36.92
2018-01-26T20:04:32.126Z,31.33
2018-01-26T20:07:17.260Z,35.95
2018-01-26T20:09:45.606Z,38.65
2018-01-26T20:12:13.204Z,39.53
2018-01-26T20:14:40.832Z,36.25
2018-01-26T20:17:08.460Z,45.83
2018-01-26T20:19:36.033Z,32.63
2018-01-26T20:22:03.623Z,34.78
2018-01-26T20:24:31.146Z,40.65
2018-01-26T20:26:58.735Z,36.63
2018-01-26T20:29:27.059Z,38.80
2018-01-26T20:31:55.519Z,32.33
2018-01-26T20:34:23.084Z,46.33
2018-01-26T20:36:51.447Z,37.42
2018-01-26T20:39:18.987Z,33.55
2018-01-26T20:41:46.673Z,49.40
2018-01-26T20:44:14.993Z,37.30
2018-01-26T20:46:43.330Z,35.88
2018-01-26T20:49:10.868Z,32.55
2018-01-26T20:51:38.662Z,29.80
2018-01-26T20:54:06.249Z,38.25
2018-01-26T20:56:33.774Z,32.75
2018-01-26T20:59:02.063Z,38.30
2018-01-26T21:01:30.376Z,31.50
2018-01-26T21:03:58.053Z,54.97
2018-01-26T21:06:25.588Z,35.88
2018-01-26T21:08:53.216Z,30.45
2018-01-26T21:11:21.572Z,34.38
2018-01-26T21:13:49.476Z,33.58
2018-01-26T21:16:17.823Z,34.35
2018-01-26T21:18:45.373Z,34.88
2018-01-26T21:21:12.967Z,30.00
2018-01-26T21:23:41.434Z,38.88
2018-01-26T21:26:09.042Z,36.65
2018-01-26T21:28:36.619Z,31.65
2018-01-26T21:31:04.959Z,34.90
2018-01-26T21:33:33.293Z,42.88
2018-01-26T21:36:01.079Z,33.63
2018-01-26T21:38:28.640Z,38.85
2018-01-26T21:40:57.844Z,33.30
2018-01-26T21:43:25.519Z,41.50
2018-01-26T21:45:53.875Z,34.15
2018-01-26T21:48:21.504Z,35.80
2018-01-26T21:50:49.109Z,37.80
2018-01-26T21:53:16.681Z,35.15
2018-01-26T21:55:45.048Z,36.78
2018-01-26T21:58:12.791Z,39.55
2018-01-26T22:00:40.454Z,42.70
2018-01-26T22:03:08.951Z,41.30
2018-01-26T22:05:36.469Z,43.63
2018-01-26T22:08:04.022Z,45.67
2018-01-26T22:10:31.561Z,44.28
2018-01-26T22:12:59.152Z,47.08
2018-01-26T22:15:26.711Z,44.75
2018-01-26T22:17:54.670Z,43.28
2018-01-26T22:20:22.239Z,38.88
2018-01-26T22:22:49.870Z,39.00
2018-01-26T22:25:17.414Z,45.38
2018-01-26T22:27:45.947Z,44.10
2018-01-26T22:30:13.483Z,44.60
2018-01-26T22:32:41.349Z,42.67
2018-01-26T22:35:08.903Z,52.08
2018-01-26T22:37:37.424Z,49.00
2018-01-26T22:40:05.482Z,42.17
2018-01-26T22:42:33.134Z,40.97
2018-01-26T22:45:00.914Z,39.45
2018-01-26T22:47:28.445Z,41.00
2018-01-26T22:49:56.033Z,41.97
2018-01-26T22:52:23.640Z,53.80
2018-01-26T22:54:51.956Z,40.10
2018-01-26T22:57:20.279Z,49.30
2018-01-26T22:59:47.920Z,44.55
2018-01-26T23:02:16.269Z,41.80
2018-01-26T23:04:43.828Z,43.85
2018-01-26T23:07:11.747Z,42.40
2018-01-26T23:09:39.322Z,52.83
2018-01-26T23:12:06.908Z,40.63
2018-01-26T23:14:34.511Z,42.38
2018-01-26T23:17:02.910Z,40.17
2018-01-26T23:19:30.481Z,41.03
2018-01-26T23:21:58.893Z,45.80
2018-01-26T23:24:26.505Z,41.80
2018-01-26T23:26:54.074Z,42.58
2018-01-26T23:29:21.758Z,40.35
2018-01-26T23:31:50.445Z,40.42
2018-01-26T23:34:18.762Z,42.72
2018-01-26T23:36:46.358Z,41.60
2018-01-26T23:39:14.004Z,54.60
2018-01-26T23:41:41.547Z,50.65
2018-01-26T23:44:09.122Z,44.53
2018-01-26T23:46:36.660Z,44.80
2018-01-26T23:49:04.240Z,45.38
2018-01-26T23:51:31.828Z,45.92
2018-01-26T23:53:59.365Z,50.60
2018-01-26T23:56:27.725Z,38.60
2018-01-26T23:58:55.372Z,41.80
